sensor_id;sensor_type;location;lat;lon;timestamp;pressure;altitude;pressure_sealevel;temperature;humidity
10014;BME280;45684;48.358;10.746;2023-11-19T00:00:22;96238.88;;;7.71;100.00
10014;BME280;45684;48.358;10.746;2023-11-19T00:02:50;96229.63;;;7.77;100.00
10014;BME280;45684;48.358;10.746;2023-11-19T00:05:17;96222.63;;;7.76;100.00
10014;BME280;45684;48.358;10.746;2023-11-19T00:07:46;96225.13;;;7.72;100.00
10014;BME280;45684;48.358;10.746;2023-11-19T00:10:15;96218.34;;;7.75;100.00
10014;BME280;45684;48.358;10.746;2023-11-19T00:12:47;96222.34;;;7.77;100.00
10014;BME280;45684;48.358;10.746;2023-11-19T00:15:16;96220.97;;;7.80;100.00
10014;BME280;45684;48.358;10.746;2023-11-19T00:17:46;96208.59;;;7.79;100.00
10014;BME280;45684;48.358;10.746;2023-11-19T00:20:17;96196.72;;;7.80;100.00
10014;BME280;45684;48.358;10.746;2023-11-19T00:22:46;96197.53;;;7.80;100.00
10014;BME280;45684;48.358;10.746;2023-11-19T00:25:18;96193.44;;;7.83;100.00
10014;BME280;45684;48.358;10.746;2023-11-19T00:27:46;96186.97;;;7.84;100.00
10014;BME280;45684;48.358;10.746;2023-11-19T00:30:14;96189.44;;;7.80;100.00
10014;BME280;45684;48.358;10.746;2023-11-19T00:32:42;96183.75;;;7.82;100.00
10014;BME280;45684;48.358;10.746;2023-11-19T00:35:11;96175.88;;;7.85;100.00
10014;BME280;45684;48.358;10.746;2023-11-19T00:37:40;96178.28;;;7.87;100.00
10014;BME280;45684;48.358;10.746;2023-11-19T00:40:11;96172.31;;;7.90;100.00
10014;BME280;45684;48.358;10.746;2023-11-19T00:42:39;96163.72;;;7.88;100.00
10014;BME280;45684;48.358;10.746;2023-11-19T00:45:07;96169.09;;;7.88;100.00
10014;BME280;45684;48.358;10.746;2023-11-19T00:47:38;96156.75;;;7.87;100.00
10014;BME280;45684;48.358;10.746;2023-11-19T00:50:07;96154.25;;;7.90;100.00
10014;BME280;45684;48.358;10.746;2023-11-19T00:52:36;96137.69;;;7.97;100.00
10014;BME280;45684;48.358;10.746;2023-11-19T00:55:05;96132.81;;;7.99;100.00
10014;BME280;45684;48.358;10.746;2023-11-19T00:57:35;96132.50;;;8.01;100.00
10014;BME280;45684;48.358;10.746;2023-11-19T01:00:04;96148.38;;;8.02;100.00
10014;BME280;45684;48.358;10.746;2023-11-19T01:02:42;96152.25;;;8.10;100.00
10014;BME280;45684;48.358;10.746;2023-11-19T01:05:10;96142.16;;;8.15;100.00
10014;BME280;45684;48.358;10.746;2023-11-19T01:07:40;96134.81;;;8.21;100.00
10014;BME280;45684;48.358;10.746;2023-11-19T01:10:09;96143.69;;;8.22;100.00
10014;BME280;45684;48.358;10.746;2023-11-19T01:12:39;96143.25;;;8.28;100.00
10014;BME280;45684;48.358;10.746;2023-11-19T01:15:07;96145.84;;;8.33;100.00
10014;BME280;45684;48.358;10.746;2023-11-19T01:17:36;96141.47;;;8.37;100.00
10014;BME280;45684;48.358;10.746;2023-11-19T01:20:05;96139.78;;;8.41;100.00
10014;BME280;45684;48.358;10.746;2023-11-19T01:22:33;96144.56;;;8.45;100.00
10014;BME280;45684;48.358;10.746;2023-11-19T01:25:01;96140.97;;;8.49;100.00
10014;BME280;45684;48.358;10.746;2023-11-19T01:27:30;96137.38;;;8.54;100.00
10014;BME280;45684;48.358;10.746;2023-11-19T01:29:59;96136.13;;;8.60;100.00
10014;BME280;45684;48.358;10.746;2023-11-19T01:32:30;96134.72;;;8.62;100.00
10014;BME280;45684;48.358;10.746;2023-11-19T01:34:57;96129.97;;;8.59;100.00
10014;BME280;45684;48.358;10.746;2023-11-19T01:37:25;96119.53;;;8.66;100.00
10014;BME280;45684;48.358;10.746;2023-11-19T01:39:53;96124.63;;;8.68;100.00
10014;BME280;45684;48.358;10.746;2023-11-19T01:42:25;96127.50;;;8.72;100.00
10014;BME280;45684;48.358;10.746;2023-11-19T01:44:56;96109.13;;;8.74;100.00
10014;BME280;45684;48.358;10.746;2023-11-19T01:47:27;96103.75;;;8.74;100.00
10014;BME280;45684;48.358;10.746;2023-11-19T01:49:56;96105.03;;;8.76;100.00
10014;BME280;45684;48.358;10.746;2023-11-19T01:52:25;96099.34;;;8.78;100.00
10014;BME280;45684;48.358;10.746;2023-11-19T01:54:53;96086.22;;;8.85;100.00
10014;BME280;45684;48.358;10.746;2023-11-19T01:57:23;96090.81;;;8.84;100.00
10014;BME280;45684;48.358;10.746;2023-11-19T01:59:52;96094.19;;;8.90;100.00
10014;BME280;45684;48.358;10.746;2023-11-19T02:02:20;96084.69;;;8.92;100.00
10014;BME280;45684;48.358;10.746;2023-11-19T02:04:51;96088.50;;;8.91;100.00
10014;BME280;45684;48.358;10.746;2023-11-19T02:07:20;96083.59;;;8.93;100.00
10014;BME280;45684;48.358;10.746;2023-11-19T02:09:48;96084.56;;;8.98;100.00
10014;BME280;45684;48.358;10.746;2023-11-19T02:12:17;96081.88;;;8.98;100.00
10014;BME280;45684;48.358;10.746;2023-11-19T02:14:47;96081.25;;;9.01;100.00
10014;BME280;45684;48.358;10.746;2023-11-19T02:17:27;96080.81;;;9.07;100.00
10014;BME280;45684;48.358;10.746;2023-11-19T02:19:59;96087.00;;;9.08;100.00
10014;BME280;45684;48.358;10.746;2023-11-19T02:22:27;96075.41;;;9.07;100.00
10014;BME280;45684;48.358;10.746;2023-11-19T02:24:59;96069.22;;;9.07;100.00
10014;BME280;45684;48.358;10.746;2023-11-19T02:27:37;96056.41;;;9.12;100.00
10014;BME280;45684;48.358;10.746;2023-11-19T02:30:06;96053.72;;;9.12;100.00
10014;BME280;45684;48.358;10.746;2023-11-19T02:32:36;96042.00;;;9.17;100.00
10014;BME280;45684;48.358;10.746;2023-11-19T02:35:06;96036.59;;;9.17;100.00
10014;BME280;45684;48.358;10.746;2023-11-19T02:37:34;96033.41;;;9.15;100.00
10014;BME280;45684;48.358;10.746;2023-11-19T02:40:03;96031.84;;;9.14;100.00
10014;BME280;45684;48.358;10.746;2023-11-19T02:42:32;96024.53;;;9.14;100.00
10014;BME280;45684;48.358;10.746;2023-11-19T02:45:01;96025.81;;;9.17;100.00
10014;BME280;45684;48.358;10.746;2023-11-19T02:47:32;96027.38;;;9.18;100.00
10014;BME280;45684;48.358;10.746;2023-11-19T02:50:01;96035.78;;;9.16;100.00
10014;BME280;45684;48.358;10.746;2023-11-19T02:52:29;96032.00;;;9.17;100.00
10014;BME280;45684;48.358;10.746;2023-11-19T02:55:01;96029.16;;;9.23;100.00
10014;BME280;45684;48.358;10.746;2023-11-19T02:57:30;96032.66;;;9.23;100.00
10014;BME280;45684;48.358;10.746;2023-11-19T02:59:58;96029.84;;;9.28;100.00
10014;BME280;45684;48.358;10.746;2023-11-19T03:02:28;96029.00;;;9.28;100.00
10014;BME280;45684;48.358;10.746;2023-11-19T03:05:00;96026.31;;;9.28;100.00
10014;BME280;45684;48.358;10.746;2023-11-19T03:07:29;96032.81;;;9.27;100.00
10014;BME280;45684;48.358;10.746;2023-11-19T03:09:57;96024.72;;;9.27;100.00
10014;BME280;45684;48.358;10.746;2023-11-19T03:12:25;96016.50;;;9.32;100.00
10014;BME280;45684;48.358;10.746;2023-11-19T03:14:54;96023.00;;;9.31;100.00
10014;BME280;45684;48.358;10.746;2023-11-19T03:17:22;96020.31;;;9.31;100.00
10014;BME280;45684;48.358;10.746;2023-11-19T03:19:52;96022.88;;;9.36;100.00
10014;BME280;45684;48.358;10.746;2023-11-19T03:22:20;96033.03;;;9.39;100.00
10014;BME280;45684;48.358;10.746;2023-11-19T03:27:37;96027.19;;;9.45;100.00
10014;BME280;45684;48.358;10.746;2023-11-19T03:30:07;96024.03;;;9.43;100.00
10014;BME280;45684;48.358;10.746;2023-11-19T03:32:36;96018.78;;;9.47;100.00
10014;BME280;45684;48.358;10.746;2023-11-19T03:35:06;96023.09;;;9.48;100.00
10014;BME280;45684;48.358;10.746;2023-11-19T03:37:35;96018.47;;;9.49;100.00
10014;BME280;45684;48.358;10.746;2023-11-19T03:40:04;96023.41;;;9.47;100.00
10014;BME280;45684;48.358;10.746;2023-11-19T03:42:32;96017.53;;;9.53;100.00
10014;BME280;45684;48.358;10.746;2023-11-19T03:45:00;96020.09;;;9.58;100.00
10014;BME280;45684;48.358;10.746;2023-11-19T03:47:30;96015.81;;;9.57;100.00
10014;BME280;45684;48.358;10.746;2023-11-19T03:49:57;96015.16;;;9.60;100.00
10014;BME280;45684;48.358;10.746;2023-11-19T03:52:27;96032.66;;;9.63;100.00
10014;BME280;45684;48.358;10.746;2023-11-19T03:54:55;96023.75;;;9.62;100.00
10014;BME280;45684;48.358;10.746;2023-11-19T03:57:24;96030.13;;;9.66;100.00
10014;BME280;45684;48.358;10.746;2023-11-19T03:59:51;96025.53;;;9.67;100.00
10014;BME280;45684;48.358;10.746;2023-11-19T04:02:30;96035.38;;;9.71;100.00
10014;BME280;45684;48.358;10.746;2023-11-19T04:04:58;96043.16;;;9.73;100.00
10014;BME280;45684;48.358;10.746;2023-11-19T04:07:27;96031.75;;;9.76;100.00
10014;BME280;45684;48.358;10.746;2023-11-19T04:09:55;96037.31;;;9.80;100.00
10014;BME280;45684;48.358;10.746;2023-11-19T04:12:24;96039.22;;;9.79;100.00
10014;BME280;45684;48.358;10.746;2023-11-19T04:14:51;96039.69;;;9.81;100.00
10014;BME280;45684;48.358;10.746;2023-11-19T04:17:22;96045.09;;;9.81;100.00
10014;BME280;45684;48.358;10.746;2023-11-19T04:19:50;96037.78;;;9.82;100.00
10014;BME280;45684;48.358;10.746;2023-11-19T04:22:18;96034.75;;;9.83;100.00
10014;BME280;45684;48.358;10.746;2023-11-19T04:24:47;96043.66;;;9.84;100.00
10014;BME280;45684;48.358;10.746;2023-11-19T04:27:15;96044.16;;;9.86;100.00
10014;BME280;45684;48.358;10.746;2023-11-19T04:29:43;96040.66;;;9.85;100.00
10014;BME280;45684;48.358;10.746;2023-11-19T04:32:12;96028.25;;;9.93;100.00
10014;BME280;45684;48.358;10.746;2023-11-19T04:34:40;96030.97;;;9.93;100.00
10014;BME280;45684;48.358;10.746;2023-11-19T04:37:08;96034.59;;;9.88;100.00
10014;BME280;45684;48.358;10.746;2023-11-19T04:39:39;96039.56;;;9.95;100.00
10014;BME280;45684;48.358;10.746;2023-11-19T04:42:08;96033.03;;;9.96;100.00
10014;BME280;45684;48.358;10.746;2023-11-19T04:44:36;96044.97;;;9.95;100.00
10014;BME280;45684;48.358;10.746;2023-11-19T04:47:04;96047.53;;;10.00;100.00
10014;BME280;45684;48.358;10.746;2023-11-19T04:49:32;96039.09;;;10.02;100.00
10014;BME280;45684;48.358;10.746;2023-11-19T04:52:00;96037.69;;;10.04;100.00
10014;BME280;45684;48.358;10.746;2023-11-19T04:54:27;96034.47;;;10.02;100.00
10014;BME280;45684;48.358;10.746;2023-11-19T04:56:55;96030.69;;;10.03;100.00
10014;BME280;45684;48.358;10.746;2023-11-19T04:59:24;96039.09;;;10.02;100.00
10014;BME280;45684;48.358;10.746;2023-11-19T05:01:54;96038.00;;;10.03;100.00
10014;BME280;45684;48.358;10.746;2023-11-19T05:04:21;96043.53;;;10.06;100.00
10014;BME280;45684;48.358;10.746;2023-11-19T05:06:49;96034.66;;;10.06;100.00
10014;BME280;45684;48.358;10.746;2023-11-19T05:09:17;96039.25;;;10.05;100.00
10014;BME280;45684;48.358;10.746;2023-11-19T05:11:45;96034.97;;;10.04;100.00
10014;BME280;45684;48.358;10.746;2023-11-19T05:14:15;96040.53;;;9.99;100.00
10014;BME280;45684;48.358;10.746;2023-11-19T05:16:46;96040.69;;;10.03;100.00
10014;BME280;45684;48.358;10.746;2023-11-19T05:19:14;96061.50;;;10.02;100.00
10014;BME280;45684;48.358;10.746;2023-11-19T05:21:42;96052.31;;;10.03;100.00
10014;BME280;45684;48.358;10.746;2023-11-19T05:24:10;96047.19;;;10.02;100.00
10014;BME280;45684;48.358;10.746;2023-11-19T05:26:39;96038.47;;;10.05;100.00
10014;BME280;45684;48.358;10.746;2023-11-19T05:29:07;96044.34;;;9.98;100.00
10014;BME280;45684;48.358;10.746;2023-11-19T05:31:34;96049.75;;;9.98;100.00
10014;BME280;45684;48.358;10.746;2023-11-19T05:34:05;96053.72;;;10.01;100.00
10014;BME280;45684;48.358;10.746;2023-11-19T05:36:34;96040.69;;;10.03;100.00
10014;BME280;45684;48.358;10.746;2023-11-19T05:39:01;96041.50;;;10.03;100.00
10014;BME280;45684;48.358;10.746;2023-11-19T05:41:30;96036.56;;;10.05;100.00
10014;BME280;45684;48.358;10.746;2023-11-19T05:43:57;96048.47;;;10.04;100.00
10014;BME280;45684;48.358;10.746;2023-11-19T05:46:25;96047.69;;;10.04;100.00
10014;BME280;45684;48.358;10.746;2023-11-19T05:48:53;96038.63;;;10.08;100.00
10014;BME280;45684;48.358;10.746;2023-11-19T05:51:23;96048.00;;;10.11;100.00
10014;BME280;45684;48.358;10.746;2023-11-19T05:53:51;96036.22;;;10.07;100.00
10014;BME280;45684;48.358;10.746;2023-11-19T05:56:21;96031.66;;;10.07;100.00
10014;BME280;45684;48.358;10.746;2023-11-19T05:58:49;96031.94;;;10.06;100.00
10014;BME280;45684;48.358;10.746;2023-11-19T06:01:17;96039.09;;;10.10;100.00
10014;BME280;45684;48.358;10.746;2023-11-19T06:03:45;96043.88;;;10.13;100.00
10014;BME280;45684;48.358;10.746;2023-11-19T06:06:16;96042.47;;;10.07;100.00
10014;BME280;45684;48.358;10.746;2023-11-19T06:08:45;96042.94;;;10.09;100.00
10014;BME280;45684;48.358;10.746;2023-11-19T06:11:13;96045.47;;;10.14;100.00
10014;BME280;45684;48.358;10.746;2023-11-19T06:13:45;96049.75;;;10.15;100.00
10014;BME280;45684;48.358;10.746;2023-11-19T06:16:13;96053.09;;;10.21;100.00
10014;BME280;45684;48.358;10.746;2023-11-19T06:18:41;96060.13;;;10.22;100.00
10014;BME280;45684;48.358;10.746;2023-11-19T06:21:10;96045.31;;;10.19;100.00
10014;BME280;45684;48.358;10.746;2023-11-19T06:23:38;96033.25;;;10.26;100.00
10014;BME280;45684;48.358;10.746;2023-11-19T06:26:07;96047.09;;;10.24;100.00
10014;BME280;45684;48.358;10.746;2023-11-19T06:28:36;96050.31;;;10.26;100.00
10014;BME280;45684;48.358;10.746;2023-11-19T06:31:04;96061.75;;;10.32;100.00
10014;BME280;45684;48.358;10.746;2023-11-19T06:33:32;96052.50;;;10.33;100.00
10014;BME280;45684;48.358;10.746;2023-11-19T06:36:00;96051.25;;;10.39;100.00
10014;BME280;45684;48.358;10.746;2023-11-19T06:38:28;96046.63;;;10.39;100.00
10014;BME280;45684;48.358;10.746;2023-11-19T06:40:55;96063.66;;;10.40;100.00
10014;BME280;45684;48.358;10.746;2023-11-19T06:43:25;96056.97;;;10.46;100.00
10014;BME280;45684;48.358;10.746;2023-11-19T06:46:14;96064.94;;;10.51;100.00
10014;BME280;45684;48.358;10.746;2023-11-19T06:48:42;96065.88;;;10.55;100.00
10014;BME280;45684;48.358;10.746;2023-11-19T06:51:11;96060.47;;;10.55;100.00
10014;BME280;45684;48.358;10.746;2023-11-19T06:53:39;96074.78;;;10.56;100.00
10014;BME280;45684;48.358;10.746;2023-11-19T06:56:17;96059.38;;;10.56;100.00
10014;BME280;45684;48.358;10.746;2023-11-19T06:58:46;96071.75;;;10.57;100.00
10014;BME280;45684;48.358;10.746;2023-11-19T07:01:15;96066.69;;;10.64;100.00
10014;BME280;45684;48.358;10.746;2023-11-19T07:03:44;96076.84;;;10.67;100.00
10014;BME280;45684;48.358;10.746;2023-11-19T07:06:13;96071.44;;;10.67;100.00
10014;BME280;45684;48.358;10.746;2023-11-19T07:08:41;96070.03;;;10.70;100.00
10014;BME280;45684;48.358;10.746;2023-11-19T07:11:11;96076.38;;;10.74;100.00
10014;BME280;45684;48.358;10.746;2023-11-19T07:13:40;96073.06;;;10.77;100.00
10014;BME280;45684;48.358;10.746;2023-11-19T07:16:10;96090.53;;;10.80;100.00
10014;BME280;45684;48.358;10.746;2023-11-19T07:18:38;96100.22;;;10.81;100.00
10014;BME280;45684;48.358;10.746;2023-11-19T07:21:06;96103.09;;;10.84;100.00
10014;BME280;45684;48.358;10.746;2023-11-19T07:23:37;96104.22;;;10.92;100.00
10014;BME280;45684;48.358;10.746;2023-11-19T07:26:06;96108.50;;;10.93;100.00
10014;BME280;45684;48.358;10.746;2023-11-19T07:28:35;96114.72;;;10.85;100.00
10014;BME280;45684;48.358;10.746;2023-11-19T07:31:04;96104.34;;;10.95;100.00
10014;BME280;45684;48.358;10.746;2023-11-19T07:33:35;96101.63;;;11.04;100.00
10014;BME280;45684;48.358;10.746;2023-11-19T07:36:04;96108.00;;;11.08;100.00
10014;BME280;45684;48.358;10.746;2023-11-19T07:38:32;96113.91;;;11.10;100.00
10014;BME280;45684;48.358;10.746;2023-11-19T07:41:00;96107.03;;;11.13;100.00
10014;BME280;45684;48.358;10.746;2023-11-19T07:43:28;96103.88;;;11.19;100.00
10014;BME280;45684;48.358;10.746;2023-11-19T07:45:56;96111.94;;;11.28;100.00
10014;BME280;45684;48.358;10.746;2023-11-19T07:48:25;96106.69;;;11.32;100.00
10014;BME280;45684;48.358;10.746;2023-11-19T07:50:55;96097.94;;;11.35;100.00
10014;BME280;45684;48.358;10.746;2023-11-19T07:53:23;96099.69;;;11.39;100.00
10014;BME280;45684;48.358;10.746;2023-11-19T07:55:51;96110.19;;;11.41;100.00
10014;BME280;45684;48.358;10.746;2023-11-19T07:58:18;96110.19;;;11.41;100.00
10014;BME280;45684;48.358;10.746;2023-11-19T08:00:46;96107.63;;;11.36;100.00
10014;BME280;45684;48.358;10.746;2023-11-19T08:03:14;96104.75;;;11.41;100.00
10014;BME280;45684;48.358;10.746;2023-11-19T08:05:42;96102.53;;;11.43;100.00
10014;BME280;45684;48.358;10.746;2023-11-19T08:08:12;96118.91;;;11.46;100.00
10014;BME280;45684;48.358;10.746;2023-11-19T08:10:40;96120.66;;;11.51;100.00
10014;BME280;45684;48.358;10.746;2023-11-19T08:13:08;96119.69;;;11.56;100.00
10014;BME280;45684;48.358;10.746;2023-11-19T08:15:36;96124.47;;;11.59;100.00
10014;BME280;45684;48.358;10.746;2023-11-19T08:18:04;96120.78;;;11.63;100.00
10014;BME280;45684;48.358;10.746;2023-11-19T08:20:33;96115.81;;;11.65;100.00
10014;BME280;45684;48.358;10.746;2023-11-19T08:23:02;96119.97;;;11.71;100.00
10014;BME280;45684;48.358;10.746;2023-11-19T08:25:31;96120.25;;;11.79;100.00
10014;BME280;45684;48.358;10.746;2023-11-19T08:28:00;96127.59;;;11.78;100.00
10014;BME280;45684;48.358;10.746;2023-11-19T08:30:27;96122.81;;;11.84;100.00
10014;BME280;45684;48.358;10.746;2023-11-19T08:32:55;96119.00;;;11.85;100.00
10014;BME280;45684;48.358;10.746;2023-11-19T08:35:23;96128.69;;;11.94;100.00
10014;BME280;45684;48.358;10.746;2023-11-19T08:37:51;96133.31;;;11.94;100.00
10014;BME280;45684;48.358;10.746;2023-11-19T08:40:19;96133.13;;;11.99;100.00
10014;BME280;45684;48.358;10.746;2023-11-19T08:42:48;96122.47;;;11.94;100.00
10014;BME280;45684;48.358;10.746;2023-11-19T08:45:16;96135.69;;;11.95;100.00
10014;BME280;45684;48.358;10.746;2023-11-19T08:47:43;96131.50;;;11.98;100.00
10014;BME280;45684;48.358;10.746;2023-11-19T08:50:12;96123.38;;;11.98;100.00
10014;BME280;45684;48.358;10.746;2023-11-19T08:52:40;96121.75;;;12.06;100.00
10014;BME280;45684;48.358;10.746;2023-11-19T08:55:07;96122.25;;;12.08;100.00
10014;BME280;45684;48.358;10.746;2023-11-19T08:57:36;96122.56;;;12.06;100.00
10014;BME280;45684;48.358;10.746;2023-11-19T09:00:07;96133.69;;;12.13;100.00
10014;BME280;45684;48.358;10.746;2023-11-19T09:02:35;96142.81;;;12.09;100.00
10014;BME280;45684;48.358;10.746;2023-11-19T09:05:04;96133.72;;;12.05;100.00
10014;BME280;45684;48.358;10.746;2023-11-19T09:07:34;96122.25;;;12.08;100.00
10014;BME280;45684;48.358;10.746;2023-11-19T09:10:02;96128.28;;;12.13;100.00
10014;BME280;45684;48.358;10.746;2023-11-19T09:12:31;96127.56;;;12.25;100.00
10014;BME280;45684;48.358;10.746;2023-11-19T09:14:59;96133.41;;;12.36;100.00
10014;BME280;45684;48.358;10.746;2023-11-19T09:17:28;96124.47;;;12.35;100.00
10014;BME280;45684;48.358;10.746;2023-11-19T09:19:56;96128.78;;;12.36;100.00
10014;BME280;45684;48.358;10.746;2023-11-19T09:22:24;96127.47;;;12.42;100.00
10014;BME280;45684;48.358;10.746;2023-11-19T09:24:52;96121.78;;;12.56;100.00
10014;BME280;45684;48.358;10.746;2023-11-19T09:27:20;96119.81;;;12.65;100.00
10014;BME280;45684;48.358;10.746;2023-11-19T09:29:48;96122.25;;;12.79;100.00
10014;BME280;45684;48.358;10.746;2023-11-19T09:32:23;96112.13;;;12.88;100.00
10014;BME280;45684;48.358;10.746;2023-11-19T09:34:52;96112.13;;;12.88;100.00
10014;BME280;45684;48.358;10.746;2023-11-19T09:37:20;96112.84;;;12.97;100.00
10014;BME280;45684;48.358;10.746;2023-11-19T09:39:48;96101.72;;;13.11;100.00
10014;BME280;45684;48.358;10.746;2023-11-19T09:42:17;96092.56;;;13.16;100.00
10014;BME280;45684;48.358;10.746;2023-11-19T09:44:47;96085.94;;;13.25;100.00
10014;BME280;45684;48.358;10.746;2023-11-19T09:47:16;96084.84;;;13.39;100.00
10014;BME280;45684;48.358;10.746;2023-11-19T09:49:44;96097.53;;;13.47;100.00
10014;BME280;45684;48.358;10.746;2023-11-19T09:52:14;96098.00;;;13.49;100.00
10014;BME280;45684;48.358;10.746;2023-11-19T09:54:41;96091.56;;;13.53;100.00
10014;BME280;45684;48.358;10.746;2023-11-19T09:57:10;96091.09;;;13.51;100.00
10014;BME280;45684;48.358;10.746;2023-11-19T09:59:40;96094.97;;;13.63;100.00
10014;BME280;45684;48.358;10.746;2023-11-19T10:02:08;96090.56;;;13.70;100.00
10014;BME280;45684;48.358;10.746;2023-11-19T10:04:38;96098.16;;;13.77;100.00
10014;BME280;45684;48.358;10.746;2023-11-19T10:07:07;96095.34;;;13.86;100.00
10014;BME280;45684;48.358;10.746;2023-11-19T10:09:37;96095.09;;;13.78;100.00
10014;BME280;45684;48.358;10.746;2023-11-19T10:12:05;96096.56;;;13.88;100.00
10014;BME280;45684;48.358;10.746;2023-11-19T10:14:34;96100.69;;;13.94;100.00
10014;BME280;45684;48.358;10.746;2023-11-19T10:17:07;96098.75;;;13.95;100.00
10014;BME280;45684;48.358;10.746;2023-11-19T10:19:35;96101.13;;;13.96;100.00
10014;BME280;45684;48.358;10.746;2023-11-19T10:22:04;96106.66;;;13.88;100.00
10014;BME280;45684;48.358;10.746;2023-11-19T10:24:33;96096.34;;;13.93;100.00
10014;BME280;45684;48.358;10.746;2023-11-19T10:27:08;96096.81;;;13.95;100.00
10014;BME280;45684;48.358;10.746;2023-11-19T10:29:36;96088.66;;;13.95;100.00
10014;BME280;45684;48.358;10.746;2023-11-19T10:32:04;96101.81;;;14.06;100.00
10014;BME280;45684;48.358;10.746;2023-11-19T10:34:52;96111.00;;;14.13;100.00
10014;BME280;45684;48.358;10.746;2023-11-19T10:37:29;96105.75;;;14.20;100.00
10014;BME280;45684;48.358;10.746;2023-11-19T10:39:58;96098.06;;;14.22;100.00
10014;BME280;45684;48.358;10.746;2023-11-19T10:42:27;96102.56;;;14.30;100.00
10014;BME280;45684;48.358;10.746;2023-11-19T10:44:55;96093.28;;;14.56;100.00
10014;BME280;45684;48.358;10.746;2023-11-19T10:47:23;96094.78;;;14.82;100.00
10014;BME280;45684;48.358;10.746;2023-11-19T10:49:54;96091.59;;;14.92;100.00
10014;BME280;45684;48.358;10.746;2023-11-19T10:52:22;96092.09;;;15.10;100.00
10014;BME280;45684;48.358;10.746;2023-11-19T10:54:55;96090.50;;;15.09;100.00
10014;BME280;45684;48.358;10.746;2023-11-19T10:57:30;96088.41;;;15.02;100.00
10014;BME280;45684;48.358;10.746;2023-11-19T11:00:01;96089.69;;;14.92;100.00
10014;BME280;45684;48.358;10.746;2023-11-19T11:02:40;96075.06;;;14.85;100.00
10014;BME280;45684;48.358;10.746;2023-11-19T11:05:09;96059.72;;;14.92;100.00
10014;BME280;45684;48.358;10.746;2023-11-19T11:07:40;96066.94;;;15.00;100.00
10014;BME280;45684;48.358;10.746;2023-11-19T11:10:09;96054.94;;;15.01;100.00
10014;BME280;45684;48.358;10.746;2023-11-19T11:12:41;96057.09;;;14.96;100.00
10014;BME280;45684;48.358;10.746;2023-11-19T11:15:11;96062.38;;;15.04;100.00
10014;BME280;45684;48.358;10.746;2023-11-19T11:17:41;96055.00;;;15.05;100.00
10014;BME280;45684;48.358;10.746;2023-11-19T11:20:11;96054.41;;;15.12;100.00
10014;BME280;45684;48.358;10.746;2023-11-19T11:22:49;96051.97;;;15.22;100.00
10014;BME280;45684;48.358;10.746;2023-11-19T11:25:32;96044.06;;;15.17;100.00
10014;BME280;45684;48.358;10.746;2023-11-19T11:28:17;96047.22;;;15.19;100.00
10014;BME280;45684;48.358;10.746;2023-11-19T11:30:57;96053.81;;;15.18;100.00
10014;BME280;45684;48.358;10.746;2023-11-19T11:33:39;96027.19;;;15.27;100.00
10014;BME280;45684;48.358;10.746;2023-11-19T11:36:13;96045.00;;;15.53;100.00
10014;BME280;45684;48.358;10.746;2023-11-19T11:38:48;96046.66;;;15.57;100.00
10014;BME280;45684;48.358;10.746;2023-11-19T11:41:18;96053.16;;;15.53;100.00
10014;BME280;45684;48.358;10.746;2023-11-19T11:43:49;96049.63;;;15.37;100.00
10014;BME280;45684;48.358;10.746;2023-11-19T11:46:54;96049.44;;;15.29;100.00
10014;BME280;45684;48.358;10.746;2023-11-19T11:49:26;96044.06;;;15.17;100.00
10014;BME280;45684;48.358;10.746;2023-11-19T11:52:03;96057.22;;;15.15;100.00
10014;BME280;45684;48.358;10.746;2023-11-19T11:54:31;96044.22;;;15.09;100.00
10014;BME280;45684;48.358;10.746;2023-11-19T11:57:07;96051.94;;;15.07;100.00
10014;BME280;45684;48.358;10.746;2023-11-19T11:59:47;96052.66;;;15.19;100.00
10014;BME280;45684;48.358;10.746;2023-11-19T12:02:16;96041.34;;;15.33;100.00
10014;BME280;45684;48.358;10.746;2023-11-19T12:04:49;96033.16;;;15.33;100.00
10014;BME280;45684;48.358;10.746;2023-11-19T12:07:19;96040.81;;;15.43;100.00
10014;BME280;45684;48.358;10.746;2023-11-19T12:09:52;96039.66;;;15.72;100.00
10014;BME280;45684;48.358;10.746;2023-11-19T12:12:22;96042.81;;;15.74;100.00
10014;BME280;45684;48.358;10.746;2023-11-19T12:15:03;96053.56;;;15.67;100.00
10014;BME280;45684;48.358;10.746;2023-11-19T12:17:49;96047.25;;;15.51;100.00
10014;BME280;45684;48.358;10.746;2023-11-19T12:20:19;96049.63;;;15.37;100.00
10014;BME280;45684;48.358;10.746;2023-11-19T12:22:50;96055.50;;;15.39;100.00
10014;BME280;45684;48.358;10.746;2023-11-19T12:25:20;96048.00;;;15.64;100.00
10014;BME280;45684;48.358;10.746;2023-11-19T12:27:51;96050.56;;;15.72;100.00
10014;BME280;45684;48.358;10.746;2023-11-19T12:30:23;96060.13;;;15.66;100.00
10014;BME280;45684;48.358;10.746;2023-11-19T12:32:53;96046.09;;;15.52;100.00
10014;BME280;45684;48.358;10.746;2023-11-19T12:35:22;96043.66;;;15.47;100.00
10014;BME280;45684;48.358;10.746;2023-11-19T12:37:52;96041.44;;;15.37;100.00
10014;BME280;45684;48.358;10.746;2023-11-19T12:40:23;96035.00;;;15.29;100.00
10014;BME280;45684;48.358;10.746;2023-11-19T12:42:52;96033.69;;;15.39;100.00
10014;BME280;45684;48.358;10.746;2023-11-19T12:45:22;96032.66;;;15.43;100.00
10014;BME280;45684;48.358;10.746;2023-11-19T12:48:04;96027.81;;;15.37;100.00
10014;BME280;45684;48.358;10.746;2023-11-19T12:50:53;96023.53;;;15.36;100.00
10014;BME280;45684;48.358;10.746;2023-11-19T12:53:21;96012.72;;;15.39;100.00
10014;BME280;45684;48.358;10.746;2023-11-19T12:55:50;96000.22;;;15.38;100.00
10014;BME280;45684;48.358;10.746;2023-11-19T12:58:46;96002.03;;;15.18;100.00